sensor_id;sensor_type;location;lat;lon;timestamp;temperature;humidity
76838;DHT22;65797;47.352;8.164;2023-05-07T00:02:22;13.50;92.00
76838;DHT22;65797;47.352;8.164;2023-05-07T00:04:48;13.50;99.90
76838;DHT22;65797;47.352;8.164;2023-05-07T00:07:14;13.40;99.90
76838;DHT22;65797;47.352;8.164;2023-05-07T00:09:40;13.40;99.90
76838;DHT22;65797;47.352;8.164;2023-05-07T00:12:06;13.40;99.90
76838;DHT22;65797;47.352;8.164;2023-05-07T00:14:32;13.40;99.90
76838;DHT22;65797;47.352;8.164;2023-05-07T00:16:58;13.40;99.90
76838;DHT22;65797;47.352;8.164;2023-05-07T00:19:24;13.40;99.90
76838;DHT22;65797;47.352;8.164;2023-05-07T00:21:49;13.40;99.90
76838;DHT22;65797;47.352;8.164;2023-05-07T00:24:15;13.40;99.90
76838;DHT22;65797;47.352;8.164;2023-05-07T00:26:41;13.30;99.90
76838;DHT22;65797;47.352;8.164;2023-05-07T00:29:07;13.30;99.90
76838;DHT22;65797;47.352;8.164;2023-05-07T00:31:32;13.30;99.90
76838;DHT22;65797;47.352;8.164;2023-05-07T00:33:58;13.30;99.90
76838;DHT22;65797;47.352;8.164;2023-05-07T00:36:24;13.30;99.90
76838;DHT22;65797;47.352;8.164;2023-05-07T00:38:50;13.20;99.90
76838;DHT22;65797;47.352;8.164;2023-05-07T00:41:16;13.20;99.90
76838;DHT22;65797;47.352;8.164;2023-05-07T00:43:42;13.20;99.90
76838;DHT22;65797;47.352;8.164;2023-05-07T00:46:07;13.10;99.90
76838;DHT22;65797;47.352;8.164;2023-05-07T00:48:33;13.00;99.90
76838;DHT22;65797;47.352;8.164;2023-05-07T00:50:59;12.90;99.90
76838;DHT22;65797;47.352;8.164;2023-05-07T00:53:25;12.90;99.90
76838;DHT22;65797;47.352;8.164;2023-05-07T00:55:52;12.90;1.00
76838;DHT22;65797;47.352;8.164;2023-05-07T00:58:17;12.90;99.90
76838;DHT22;65797;47.352;8.164;2023-05-07T01:00:43;12.90;99.90
76838;DHT22;65797;47.352;8.164;2023-05-07T01:03:09;12.90;99.90
76838;DHT22;65797;47.352;8.164;2023-05-07T01:05:35;12.80;99.90
76838;DHT22;65797;47.352;8.164;2023-05-07T01:08:01;12.80;99.90
76838;DHT22;65797;47.352;8.164;2023-05-07T01:10:28;12.80;99.90
76838;DHT22;65797;47.352;8.164;2023-05-07T01:12:57;12.90;99.90
76838;DHT22;65797;47.352;8.164;2023-05-07T01:15:24;12.80;99.90
76838;DHT22;65797;47.352;8.164;2023-05-07T01:17:49;12.90;99.90
76838;DHT22;65797;47.352;8.164;2023-05-07T01:20:15;12.80;99.90
76838;DHT22;65797;47.352;8.164;2023-05-07T01:22:43;12.80;99.90
76838;DHT22;65797;47.352;8.164;2023-05-07T01:25:09;12.70;99.90
76838;DHT22;65797;47.352;8.164;2023-05-07T01:27:35;12.60;99.90
76838;DHT22;65797;47.352;8.164;2023-05-07T01:30:02;12.60;99.90
76838;DHT22;65797;47.352;8.164;2023-05-07T01:32:40;12.50;99.90
76838;DHT22;65797;47.352;8.164;2023-05-07T01:35:11;12.50;1.00
76838;DHT22;65797;47.352;8.164;2023-05-07T01:37:38;12.50;1.00
76838;DHT22;65797;47.352;8.164;2023-05-07T01:40:05;12.60;99.90
76838;DHT22;65797;47.352;8.164;2023-05-07T01:42:33;12.60;99.90
76838;DHT22;65797;47.352;8.164;2023-05-07T01:44:59;12.50;99.90
76838;DHT22;65797;47.352;8.164;2023-05-07T01:47:25;12.40;99.90
76838;DHT22;65797;47.352;8.164;2023-05-07T01:49:52;12.40;1.00
76838;DHT22;65797;47.352;8.164;2023-05-07T01:52:18;12.40;1.00
76838;DHT22;65797;47.352;8.164;2023-05-07T01:54:44;12.40;1.00
76838;DHT22;65797;47.352;8.164;2023-05-07T01:57:09;12.30;99.90
76838;DHT22;65797;47.352;8.164;2023-05-07T01:59:35;12.30;1.00
76838;DHT22;65797;47.352;8.164;2023-05-07T02:02:01;12.20;99.90
76838;DHT22;65797;47.352;8.164;2023-05-07T02:04:26;12.10;1.00
76838;DHT22;65797;47.352;8.164;2023-05-07T02:06:52;12.00;1.00
76838;DHT22;65797;47.352;8.164;2023-05-07T02:09:18;12.00;99.90
76838;DHT22;65797;47.352;8.164;2023-05-07T02:11:44;12.10;1.00
76838;DHT22;65797;47.352;8.164;2023-05-07T02:14:10;12.00;1.00
76838;DHT22;65797;47.352;8.164;2023-05-07T02:16:36;12.10;1.00
76838;DHT22;65797;47.352;8.164;2023-05-07T02:19:02;12.10;1.00
76838;DHT22;65797;47.352;8.164;2023-05-07T02:21:27;12.10;1.00
76838;DHT22;65797;47.352;8.164;2023-05-07T02:23:53;12.10;1.00
76838;DHT22;65797;47.352;8.164;2023-05-07T02:26:19;12.10;99.90
76838;DHT22;65797;47.352;8.164;2023-05-07T02:28:46;12.10;1.00
76838;DHT22;65797;47.352;8.164;2023-05-07T02:31:12;12.00;99.90
76838;DHT22;65797;47.352;8.164;2023-05-07T02:33:38;12.00;99.90
76838;DHT22;65797;47.352;8.164;2023-05-07T02:36:11;12.00;1.00
76838;DHT22;65797;47.352;8.164;2023-05-07T02:38:37;12.00;99.90
76838;DHT22;65797;47.352;8.164;2023-05-07T02:41:03;12.00;99.90
76838;DHT22;65797;47.352;8.164;2023-05-07T02:43:29;11.80;99.90
76838;DHT22;65797;47.352;8.164;2023-05-07T02:48:28;11.60;1.00
76838;DHT22;65797;47.352;8.164;2023-05-07T02:50:54;11.70;1.00
76838;DHT22;65797;47.352;8.164;2023-05-07T02:53:19;11.70;1.00
76838;DHT22;65797;47.352;8.164;2023-05-07T02:55:45;11.70;1.00
76838;DHT22;65797;47.352;8.164;2023-05-07T02:58:11;11.60;1.00
76838;DHT22;65797;47.352;8.164;2023-05-07T03:00:36;11.60;1.00
76838;DHT22;65797;47.352;8.164;2023-05-07T03:03:02;11.60;1.00
76838;DHT22;65797;47.352;8.164;2023-05-07T03:05:28;11.60;1.00
76838;DHT22;65797;47.352;8.164;2023-05-07T03:07:53;11.60;1.00
76838;DHT22;65797;47.352;8.164;2023-05-07T03:10:19;11.40;99.90
76838;DHT22;65797;47.352;8.164;2023-05-07T03:12:45;11.40;1.00
76838;DHT22;65797;47.352;8.164;2023-05-07T03:15:11;11.20;1.00
76838;DHT22;65797;47.352;8.164;2023-05-07T03:17:39;11.30;99.90
76838;DHT22;65797;47.352;8.164;2023-05-07T03:20:06;11.30;99.90
76838;DHT22;65797;47.352;8.164;2023-05-07T03:22:32;11.30;99.90
76838;DHT22;65797;47.352;8.164;2023-05-07T03:24:58;11.30;1.00
76838;DHT22;65797;47.352;8.164;2023-05-07T03:27:24;11.40;1.00
76838;DHT22;65797;47.352;8.164;2023-05-07T03:29:49;11.40;1.00
76838;DHT22;65797;47.352;8.164;2023-05-07T03:32:15;11.40;1.00
76838;DHT22;65797;47.352;8.164;2023-05-07T03:34:41;11.30;1.00
76838;DHT22;65797;47.352;8.164;2023-05-07T03:37:06;11.30;1.00
76838;DHT22;65797;47.352;8.164;2023-05-07T03:39:32;11.30;1.00
76838;DHT22;65797;47.352;8.164;2023-05-07T03:41:58;11.30;1.00
76838;DHT22;65797;47.352;8.164;2023-05-07T03:44:23;11.20;1.00
76838;DHT22;65797;47.352;8.164;2023-05-07T03:46:49;11.20;1.00
76838;DHT22;65797;47.352;8.164;2023-05-07T03:49:15;11.30;1.00
76838;DHT22;65797;47.352;8.164;2023-05-07T03:51:41;11.20;1.00
76838;DHT22;65797;47.352;8.164;2023-05-07T03:54:07;11.20;1.00
76838;DHT22;65797;47.352;8.164;2023-05-07T03:56:33;11.10;99.90
76838;DHT22;65797;47.352;8.164;2023-05-07T03:58:59;11.10;1.00
76838;DHT22;65797;47.352;8.164;2023-05-07T04:01:25;11.00;1.00
76838;DHT22;65797;47.352;8.164;2023-05-07T04:03:51;11.10;1.00
76838;DHT22;65797;47.352;8.164;2023-05-07T04:06:17;11.10;1.00
76838;DHT22;65797;47.352;8.164;2023-05-07T04:08:43;11.00;1.00
76838;DHT22;65797;47.352;8.164;2023-05-07T04:11:09;10.90;1.00
76838;DHT22;65797;47.352;8.164;2023-05-07T04:13:34;10.90;89.50
76838;DHT22;65797;47.352;8.164;2023-05-07T04:16:02;10.80;1.00
76838;DHT22;65797;47.352;8.164;2023-05-07T04:18:28;10.90;1.00
76838;DHT22;65797;47.352;8.164;2023-05-07T04:20:54;11.00;1.00
76838;DHT22;65797;47.352;8.164;2023-05-07T04:23:19;10.90;1.00
76838;DHT22;65797;47.352;8.164;2023-05-07T04:25:45;11.00;24.20
76838;DHT22;65797;47.352;8.164;2023-05-07T05:38:00;11.60;1.00
76838;DHT22;65797;47.352;8.164;2023-05-07T10:42:59;20.30;99.90
76838;DHT22;65797;47.352;8.164;2023-05-07T10:45:26;20.40;99.90
76838;DHT22;65797;47.352;8.164;2023-05-07T10:48:18;20.60;99.90
76838;DHT22;65797;47.352;8.164;2023-05-07T10:50:44;20.70;99.90
76838;DHT22;65797;47.352;8.164;2023-05-07T10:55:47;21.20;99.90
76838;DHT22;65797;47.352;8.164;2023-05-07T10:58:24;21.60;99.90
76838;DHT22;65797;47.352;8.164;2023-05-07T11:01:11;22.00;99.90
76838;DHT22;65797;47.352;8.164;2023-05-07T11:04:14;21.80;99.90
76838;DHT22;65797;47.352;8.164;2023-05-07T11:06:40;22.20;99.90
76838;DHT22;65797;47.352;8.164;2023-05-07T11:09:06;22.30;99.90
76838;DHT22;65797;47.352;8.164;2023-05-07T11:11:49;22.20;99.90
76838;DHT22;65797;47.352;8.164;2023-05-07T11:17:09;22.30;99.90
76838;DHT22;65797;47.352;8.164;2023-05-07T11:19:50;22.10;99.90
76838;DHT22;65797;47.352;8.164;2023-05-07T11:22:46;22.30;99.90
76838;DHT22;65797;47.352;8.164;2023-05-07T11:25:17;22.80;99.90
76838;DHT22;65797;47.352;8.164;2023-05-07T11:27:44;23.00;99.90
76838;DHT22;65797;47.352;8.164;2023-05-07T11:30:16;23.10;99.90
76838;DHT22;65797;47.352;8.164;2023-05-07T11:32:43;22.90;99.90
76838;DHT22;65797;47.352;8.164;2023-05-07T11:35:09;22.70;99.90
76838;DHT22;65797;47.352;8.164;2023-05-07T11:37:38;22.90;99.90
76838;DHT22;65797;47.352;8.164;2023-05-07T11:40:05;22.40;99.90
76838;DHT22;65797;47.352;8.164;2023-05-07T11:42:36;22.80;99.90
76838;DHT22;65797;47.352;8.164;2023-05-07T11:45:03;23.30;99.90
76838;DHT22;65797;47.352;8.164;2023-05-07T11:47:33;23.70;99.90
76838;DHT22;65797;47.352;8.164;2023-05-07T11:50:04;23.70;99.90
76838;DHT22;65797;47.352;8.164;2023-05-07T11:52:30;23.80;99.90
76838;DHT22;65797;47.352;8.164;2023-05-07T11:54:57;24.10;99.90
76838;DHT22;65797;47.352;8.164;2023-05-07T11:57:24;24.00;99.90
76838;DHT22;65797;47.352;8.164;2023-05-07T11:59:54;24.20;99.90
76838;DHT22;65797;47.352;8.164;2023-05-07T12:02:20;24.20;99.90
76838;DHT22;65797;47.352;8.164;2023-05-07T12:04:46;24.20;99.90
76838;DHT22;65797;47.352;8.164;2023-05-07T12:07:15;23.90;99.90
76838;DHT22;65797;47.352;8.164;2023-05-07T12:09:41;24.20;99.90
76838;DHT22;65797;47.352;8.164;2023-05-07T12:12:07;24.30;99.90
76838;DHT22;65797;47.352;8.164;2023-05-07T12:14:40;24.10;99.90
76838;DHT22;65797;47.352;8.164;2023-05-07T12:17:09;24.10;99.90
76838;DHT22;65797;47.352;8.164;2023-05-07T12:19:36;24.40;99.90
76838;DHT22;65797;47.352;8.164;2023-05-07T12:22:08;24.10;99.90
76838;DHT22;65797;47.352;8.164;2023-05-07T12:27:17;24.10;99.90
76838;DHT22;65797;47.352;8.164;2023-05-07T12:29:50;24.20;99.90
76838;DHT22;65797;47.352;8.164;2023-05-07T12:32:20;23.80;99.90
76838;DHT22;65797;47.352;8.164;2023-05-07T12:34:50;23.70;99.90
76838;DHT22;65797;47.352;8.164;2023-05-07T12:37:16;23.70;99.90
76838;DHT22;65797;47.352;8.164;2023-05-07T12:39:48;23.60;99.90
76838;DHT22;65797;47.352;8.164;2023-05-07T12:42:16;24.00;99.90
76838;DHT22;65797;47.352;8.164;2023-05-07T12:44:45;24.10;99.90
76838;DHT22;65797;47.352;8.164;2023-05-07T12:47:11;24.20;99.90
76838;DHT22;65797;47.352;8.164;2023-05-07T12:49:38;24.10;99.90
76838;DHT22;65797;47.352;8.164;2023-05-07T12:52:05;24.30;99.90
76838;DHT22;65797;47.352;8.164;2023-05-07T12:54:37;24.20;99.90
76838;DHT22;65797;47.352;8.164;2023-05-07T12:57:08;23.70;99.90
76838;DHT22;65797;47.352;8.164;2023-05-07T12:59:41;23.10;99.90
76838;DHT22;65797;47.352;8.164;2023-05-07T13:02:07;22.80;99.90
76838;DHT22;65797;47.352;8.164;2023-05-07T13:04:33;22.70;99.90
76838;DHT22;65797;47.352;8.164;2023-05-07T13:07:00;22.60;99.90
76838;DHT22;65797;47.352;8.164;2023-05-07T13:09:26;22.50;99.90
76838;DHT22;65797;47.352;8.164;2023-05-07T13:11:52;22.10;99.90
76838;DHT22;65797;47.352;8.164;2023-05-07T13:14:17;21.90;99.90
76838;DHT22;65797;47.352;8.164;2023-05-07T13:16:46;21.80;99.90
76838;DHT22;65797;47.352;8.164;2023-05-07T13:19:12;21.50;99.90
76838;DHT22;65797;47.352;8.164;2023-05-07T13:21:38;21.50;99.90
76838;DHT22;65797;47.352;8.164;2023-05-07T13:24:03;21.10;99.90
76838;DHT22;65797;47.352;8.164;2023-05-07T13:26:30;21.20;99.90
76838;DHT22;65797;47.352;8.164;2023-05-07T13:28:56;21.30;99.90
76838;DHT22;65797;47.352;8.164;2023-05-07T13:31:22;21.30;99.90
76838;DHT22;65797;47.352;8.164;2023-05-07T13:33:48;21.50;99.90
76838;DHT22;65797;47.352;8.164;2023-05-07T13:36:14;21.30;99.90
76838;DHT22;65797;47.352;8.164;2023-05-07T13:38:40;21.20;99.90
76838;DHT22;65797;47.352;8.164;2023-05-07T13:41:06;21.20;99.90
76838;DHT22;65797;47.352;8.164;2023-05-07T13:43:32;21.30;99.90
76838;DHT22;65797;47.352;8.164;2023-05-07T13:46:02;21.20;99.90
76838;DHT22;65797;47.352;8.164;2023-05-07T13:48:27;21.30;99.90
76838;DHT22;65797;47.352;8.164;2023-05-07T13:50:56;21.10;99.90
76838;DHT22;65797;47.352;8.164;2023-05-07T13:53:22;21.20;99.90
76838;DHT22;65797;47.352;8.164;2023-05-07T13:55:48;21.00;99.90
76838;DHT22;65797;47.352;8.164;2023-05-07T13:58:14;21.00;99.90
76838;DHT22;65797;47.352;8.164;2023-05-07T14:00:40;21.00;99.90
76838;DHT22;65797;47.352;8.164;2023-05-07T14:03:05;21.00;99.90
76838;DHT22;65797;47.352;8.164;2023-05-07T14:05:34;20.70;99.90
76838;DHT22;65797;47.352;8.164;2023-05-07T14:08:00;20.80;99.90
76838;DHT22;65797;47.352;8.164;2023-05-07T14:10:26;20.50;99.90
76838;DHT22;65797;47.352;8.164;2023-05-07T14:12:51;20.40;99.90
76838;DHT22;65797;47.352;8.164;2023-05-07T14:15:18;20.40;99.90
76838;DHT22;65797;47.352;8.164;2023-05-07T14:17:45;20.50;99.90
76838;DHT22;65797;47.352;8.164;2023-05-07T14:20:12;20.60;99.90
76838;DHT22;65797;47.352;8.164;2023-05-07T14:22:37;20.40;99.90
76838;DHT22;65797;47.352;8.164;2023-05-07T14:25:03;20.20;99.90
76838;DHT22;65797;47.352;8.164;2023-05-07T14:27:29;20.30;99.90
76838;DHT22;65797;47.352;8.164;2023-05-07T14:29:55;20.00;99.90
76838;DHT22;65797;47.352;8.164;2023-05-07T14:32:21;19.80;99.90
76838;DHT22;65797;47.352;8.164;2023-05-07T14:34:47;19.50;99.90
76838;DHT22;65797;47.352;8.164;2023-05-07T14:37:13;19.70;99.90
76838;DHT22;65797;47.352;8.164;2023-05-07T14:39:38;19.80;99.90
76838;DHT22;65797;47.352;8.164;2023-05-07T14:42:05;19.90;99.90
76838;DHT22;65797;47.352;8.164;2023-05-07T14:44:31;19.70;99.90
76838;DHT22;65797;47.352;8.164;2023-05-07T14:46:56;19.60;99.90
76838;DHT22;65797;47.352;8.164;2023-05-07T14:49:22;19.70;99.90
76838;DHT22;65797;47.352;8.164;2023-05-07T14:51:49;19.50;99.90
76838;DHT22;65797;47.352;8.164;2023-05-07T14:54:15;19.60;99.90
76838;DHT22;65797;47.352;8.164;2023-05-07T14:56:41;19.30;99.90
76838;DHT22;65797;47.352;8.164;2023-05-07T14:59:08;19.20;99.90
76838;DHT22;65797;47.352;8.164;2023-05-07T15:01:35;19.20;99.90
76838;DHT22;65797;47.352;8.164;2023-05-07T15:04:02;19.00;99.90
76838;DHT22;65797;47.352;8.164;2023-05-07T15:06:28;19.00;99.90
76838;DHT22;65797;47.352;8.164;2023-05-07T15:08:54;19.00;99.90
76838;DHT22;65797;47.352;8.164;2023-05-07T15:11:20;19.00;99.90
76838;DHT22;65797;47.352;8.164;2023-05-07T15:13:46;19.10;99.90
76838;DHT22;65797;47.352;8.164;2023-05-07T15:16:11;19.10;99.90
76838;DHT22;65797;47.352;8.164;2023-05-07T15:18:38;19.10;99.90
76838;DHT22;65797;47.352;8.164;2023-05-07T15:21:04;19.00;99.90
76838;DHT22;65797;47.352;8.164;2023-05-07T15:23:30;19.10;99.90
76838;DHT22;65797;47.352;8.164;2023-05-07T15:25:56;19.10;99.90
76838;DHT22;65797;47.352;8.164;2023-05-07T15:28:22;19.00;99.90
76838;DHT22;65797;47.352;8.164;2023-05-07T15:30:48;19.00;99.90
76838;DHT22;65797;47.352;8.164;2023-05-07T15:33:13;19.00;99.90
76838;DHT22;65797;47.352;8.164;2023-05-07T15:35:39;18.90;99.90
76838;DHT22;65797;47.352;8.164;2023-05-07T15:38:05;18.90;99.90
76838;DHT22;65797;47.352;8.164;2023-05-07T15:40:31;18.80;99.90
76838;DHT22;65797;47.352;8.164;2023-05-07T15:42:57;18.80;99.90
76838;DHT22;65797;47.352;8.164;2023-05-07T15:45:24;18.50;99.90
76838;DHT22;65797;47.352;8.164;2023-05-07T15:47:49;18.40;99.90
76838;DHT22;65797;47.352;8.164;2023-05-07T15:50:15;18.40;99.90
76838;DHT22;65797;47.352;8.164;2023-05-07T15:52:41;18.40;99.90
76838;DHT22;65797;47.352;8.164;2023-05-07T15:55:07;18.40;99.90
76838;DHT22;65797;47.352;8.164;2023-05-07T15:57:34;18.30;99.90
76838;DHT22;65797;47.352;8.164;2023-05-07T16:00:01;18.30;99.90
76838;DHT22;65797;47.352;8.164;2023-05-07T18:23:38;15.40;99.90
76838;DHT22;65797;47.352;8.164;2023-05-07T18:26:03;15.50;1.00
76838;DHT22;65797;47.352;8.164;2023-05-07T18:28:29;15.50;1.00
76838;DHT22;65797;47.352;8.164;2023-05-07T18:30:55;15.40;99.90
76838;DHT22;65797;47.352;8.164;2023-05-07T18:33:21;15.40;1.00
76838;DHT22;65797;47.352;8.164;2023-05-07T18:35:56;15.40;99.90
76838;DHT22;65797;47.352;8.164;2023-05-07T18:38:21;15.40;1.00
76838;DHT22;65797;47.352;8.164;2023-05-07T18:40:47;15.40;90.80
76838;DHT22;65797;47.352;8.164;2023-05-07T18:43:13;15.30;99.90
76838;DHT22;65797;47.352;8.164;2023-05-07T18:45:39;15.30;99.90
76838;DHT22;65797;47.352;8.164;2023-05-07T18:48:05;15.30;99.90
76838;DHT22;65797;47.352;8.164;2023-05-07T18:50:33;15.30;99.90
76838;DHT22;65797;47.352;8.164;2023-05-07T18:52:59;15.30;99.90
76838;DHT22;65797;47.352;8.164;2023-05-07T18:55:26;15.30;99.90
76838;DHT22;65797;47.352;8.164;2023-05-07T18:57:51;15.30;99.90
76838;DHT22;65797;47.352;8.164;2023-05-07T19:00:18;15.10;99.90
76838;DHT22;65797;47.352;8.164;2023-05-07T19:02:43;15.10;1.00
76838;DHT22;65797;47.352;8.164;2023-05-07T19:05:09;15.00;99.90
76838;DHT22;65797;47.352;8.164;2023-05-07T19:07:35;15.00;99.90
76838;DHT22;65797;47.352;8.164;2023-05-07T19:10:01;15.00;99.90
76838;DHT22;65797;47.352;8.164;2023-05-07T19:12:26;14.90;99.90
76838;DHT22;65797;47.352;8.164;2023-05-07T19:14:53;14.90;99.90
76838;DHT22;65797;47.352;8.164;2023-05-07T19:17:19;15.00;99.90
76838;DHT22;65797;47.352;8.164;2023-05-07T19:19:47;15.00;99.90
76838;DHT22;65797;47.352;8.164;2023-05-07T19:22:14;15.00;1.00
76838;DHT22;65797;47.352;8.164;2023-05-07T19:24:40;14.80;99.90
76838;DHT22;65797;47.352;8.164;2023-05-07T19:27:06;14.90;1.00
76838;DHT22;65797;47.352;8.164;2023-05-07T19:29:32;14.90;1.00
76838;DHT22;65797;47.352;8.164;2023-05-07T19:31:58;15.00;25.20
76838;DHT22;65797;47.352;8.164;2023-05-07T19:34:24;15.00;1.00
76838;DHT22;65797;47.352;8.164;2023-05-07T19:36:50;15.10;1.00
76838;DHT22;65797;47.352;8.164;2023-05-07T19:39:16;15.10;99.90
76838;DHT22;65797;47.352;8.164;2023-05-07T19:41:41;15.10;1.00
76838;DHT22;65797;47.352;8.164;2023-05-07T19:44:07;15.10;99.90
76838;DHT22;65797;47.352;8.164;2023-05-07T19:46:33;15.20;99.90
76838;DHT22;65797;47.352;8.164;2023-05-07T19:49:00;15.10;99.90
76838;DHT22;65797;47.352;8.164;2023-05-07T19:51:26;15.00;99.90
76838;DHT22;65797;47.352;8.164;2023-05-07T19:53:56;15.00;1.00
76838;DHT22;65797;47.352;8.164;2023-05-07T19:56:23;15.00;1.00
76838;DHT22;65797;47.352;8.164;2023-05-07T19:58:48;14.90;1.00
76838;DHT22;65797;47.352;8.164;2023-05-07T20:01:15;14.90;99.90
76838;DHT22;65797;47.352;8.164;2023-05-07T20:03:40;14.90;1.00
76838;DHT22;65797;47.352;8.164;2023-05-07T20:06:06;14.90;99.90
76838;DHT22;65797;47.352;8.164;2023-05-07T20:08:32;14.80;99.90
76838;DHT22;65797;47.352;8.164;2023-05-07T20:10:58;14.80;95.30
76838;DHT22;65797;47.352;8.164;2023-05-07T20:13:26;14.80;99.90
76838;DHT22;65797;47.352;8.164;2023-05-07T20:15:59;14.80;1.00
76838;DHT22;65797;47.352;8.164;2023-05-07T20:18:26;14.70;1.00
76838;DHT22;65797;47.352;8.164;2023-05-07T20:20:52;14.70;99.90
76838;DHT22;65797;47.352;8.164;2023-05-07T20:23:18;14.50;1.00
76838;DHT22;65797;47.352;8.164;2023-05-07T20:25:45;14.60;99.90
76838;DHT22;65797;47.352;8.164;2023-05-07T20:28:11;14.40;99.90
76838;DHT22;65797;47.352;8.164;2023-05-07T20:30:37;14.40;1.00
76838;DHT22;65797;47.352;8.164;2023-05-07T20:33:02;14.40;99.90
76838;DHT22;65797;47.352;8.164;2023-05-07T20:35:30;14.40;14.50
76838;DHT22;65797;47.352;8.164;2023-05-07T20:37:56;14.40;99.90
76838;DHT22;65797;47.352;8.164;2023-05-07T20:40:22;14.40;1.00
76838;DHT22;65797;47.352;8.164;2023-05-07T20:42:48;14.40;99.90
76838;DHT22;65797;47.352;8.164;2023-05-07T20:45:14;14.40;68.80
76838;DHT22;65797;47.352;8.164;2023-05-07T20:47:40;14.40;1.00
76838;DHT22;65797;47.352;8.164;2023-05-07T20:50:07;14.30;99.90
76838;DHT22;65797;47.352;8.164;2023-05-07T20:52:33;14.30;99.90
76838;DHT22;65797;47.352;8.164;2023-05-07T20:54:59;14.30;1.00
76838;DHT22;65797;47.352;8.164;2023-05-07T20:57:25;14.30;35.00
76838;DHT22;65797;47.352;8.164;2023-05-07T20:59:50;14.20;99.90
76838;DHT22;65797;47.352;8.164;2023-05-07T21:02:16;14.20;99.90
76838;DHT22;65797;47.352;8.164;2023-05-07T21:04:42;14.20;98.40
76838;DHT22;65797;47.352;8.164;2023-05-07T21:07:07;14.30;99.90
76838;DHT22;65797;47.352;8.164;2023-05-07T21:09:33;14.30;99.90
76838;DHT22;65797;47.352;8.164;2023-05-07T21:11:59;14.30;99.90
76838;DHT22;65797;47.352;8.164;2023-05-07T21:14:25;14.30;1.00
76838;DHT22;65797;47.352;8.164;2023-05-07T21:16:50;14.40;1.00
76838;DHT22;65797;47.352;8.164;2023-05-07T21:19:16;14.40;1.00
76838;DHT22;65797;47.352;8.164;2023-05-07T21:21:42;14.30;99.90
76838;DHT22;65797;47.352;8.164;2023-05-07T21:24:08;14.30;99.90
76838;DHT22;65797;47.352;8.164;2023-05-07T21:26:43;14.30;99.90
76838;DHT22;65797;47.352;8.164;2023-05-07T21:29:08;14.30;1.00
76838;DHT22;65797;47.352;8.164;2023-05-07T21:31:35;14.30;99.90
76838;DHT22;65797;47.352;8.164;2023-05-07T21:34:03;14.30;1.00
76838;DHT22;65797;47.352;8.164;2023-05-07T21:36:32;14.30;99.90
76838;DHT22;65797;47.352;8.164;2023-05-07T22:23:08;14.20;1.00
76838;DHT22;65797;47.352;8.164;2023-05-07T22:25:34;14.20;1.00
76838;DHT22;65797;47.352;8.164;2023-05-07T22:28:00;14.20;1.00
76838;DHT22;65797;47.352;8.164;2023-05-07T22:30:26;14.20;1.00
76838;DHT22;65797;47.352;8.164;2023-05-07T22:32:52;14.20;1.00
76838;DHT22;65797;47.352;8.164;2023-05-07T22:35:18;14.20;1.00
76838;DHT22;65797;47.352;8.164;2023-05-07T22:37:43;14.20;1.00
76838;DHT22;65797;47.352;8.164;2023-05-07T22:40:09;14.20;1.00
76838;DHT22;65797;47.352;8.164;2023-05-07T22:42:35;14.20;1.00
76838;DHT22;65797;47.352;8.164;2023-05-07T22:45:01;14.10;1.00
76838;DHT22;65797;47.352;8.164;2023-05-07T22:47:28;14.00;1.00
76838;DHT22;65797;47.352;8.164;2023-05-07T22:49:55;13.90;1.00
76838;DHT22;65797;47.352;8.164;2023-05-07T22:52:21;14.00;1.00
76838;DHT22;65797;47.352;8.164;2023-05-07T22:54:47;14.00;23.00
76838;DHT22;65797;47.352;8.164;2023-05-07T22:57:17;14.00;1.00
76838;DHT22;65797;47.352;8.164;2023-05-07T22:59:43;14.00;67.50
76838;DHT22;65797;47.352;8.164;2023-05-07T23:02:09;14.00;99.90
76838;DHT22;65797;47.352;8.164;2023-05-07T23:04:35;14.00;1.00
76838;DHT22;65797;47.352;8.164;2023-05-07T23:07:00;14.00;1.00
76838;DHT22;65797;47.352;8.164;2023-05-07T23:09:26;13.90;1.00
76838;DHT22;65797;47.352;8.164;2023-05-07T23:11:52;13.90;28.20
76838;DHT22;65797;47.352;8.164;2023-05-07T23:14:18;13.90;99.90
76838;DHT22;65797;47.352;8.164;2023-05-07T23:16:43;13.90;99.90
76838;DHT22;65797;47.352;8.164;2023-05-07T23:19:09;13.90;99.90
76838;DHT22;65797;47.352;8.164;2023-05-07T23:21:36;13.90;99.90
76838;DHT22;65797;47.352;8.164;2023-05-07T23:24:02;13.90;96.20
76838;DHT22;65797;47.352;8.164;2023-05-07T23:26:27;13.80;1.00
76838;DHT22;65797;47.352;8.164;2023-05-07T23:28:53;13.90;3.20
76838;DHT22;65797;47.352;8.164;2023-05-07T23:31:19;13.80;1.00
76838;DHT22;65797;47.352;8.164;2023-05-07T23:33:45;13.80;48.20
76838;DHT22;65797;47.352;8.164;2023-05-07T23:36:10;13.70;96.30
76838;DHT22;65797;47.352;8.164;2023-05-07T23:38:36;13.70;99.90
76838;DHT22;65797;47.352;8.164;2023-05-07T23:41:02;13.70;99.90
76838;DHT22;65797;47.352;8.164;2023-05-07T23:43:28;13.60;96.50
76838;DHT22;65797;47.352;8.164;2023-05-07T23:45:53;13.60;99.90
76838;DHT22;65797;47.352;8.164;2023-05-07T23:48:19;13.60;99.90
76838;DHT22;65797;47.352;8.164;2023-05-07T23:50:45;13.60;99.90
76838;DHT22;65797;47.352;8.164;2023-05-07T23:53:10;13.60;99.90
76838;DHT22;65797;47.352;8.164;2023-05-07T23:55:36;13.60;98.90
76838;DHT22;65797;47.352;8.164;2023-05-07T23:58:03;13.60;74.30
